createdAt,value
2023-03-11T00:00:47.676Z,7.87
2023-03-11T00:03:18.293Z,4.20
2023-03-11T00:05:47.531Z,10.10
2023-03-11T00:08:18.039Z,3.60
2023-03-11T00:10:49.545Z,6.20
2023-03-11T00:13:17.856Z,6.30
2023-03-11T00:15:48.380Z,5.77
2023-03-11T00:18:16.404Z,5.17
2023-03-11T00:20:46.920Z,6.37
2023-03-11T00:23:15.597Z,5.57
2023-03-11T00:25:45.665Z,6.87
2023-03-11T00:28:16.066Z,5.47
2023-03-11T00:30:45.682Z,4.20
2023-03-11T00:33:14.853Z,5.63
2023-03-11T00:35:43.468Z,6.07
2023-03-11T00:38:15.110Z,7.57
2023-03-11T00:40:43.365Z,5.40
2023-03-11T00:43:11.167Z,4.83
2023-03-11T00:45:40.551Z,7.43
2023-03-11T00:48:09.181Z,11.50
2023-03-11T00:50:38.303Z,7.57
2023-03-11T00:53:07.123Z,7.17
2023-03-11T00:55:36.356Z,8.20
2023-03-11T00:58:06.433Z,9.43
2023-03-11T01:00:35.463Z,12.57
2023-03-11T01:03:05.108Z,10.30
2023-03-11T01:05:34.254Z,6.83
2023-03-11T01:08:02.731Z,12.53
2023-03-11T01:10:31.647Z,9.73
2023-03-11T01:13:00.070Z,8.33
2023-03-11T01:15:30.432Z,5.37
2023-03-11T01:17:58.189Z,11.90
2023-03-11T01:20:27.812Z,10.57
2023-03-11T01:22:55.611Z,14.93
2023-03-11T01:25:24.918Z,8.57
2023-03-11T01:27:52.900Z,14.97
2023-03-11T01:30:22.644Z,13.27
2023-03-11T01:32:50.961Z,7.73
2023-03-11T01:35:21.228Z,12.30
2023-03-11T01:37:50.476Z,8.47
2023-03-11T01:40:21.486Z,9.30
2023-03-11T01:42:49.235Z,8.83
2023-03-11T01:45:41.420Z,14.83
2023-03-11T01:48:10.097Z,14.60
2023-03-11T01:50:41.384Z,10.30
2023-03-11T01:53:11.071Z,8.33
2023-03-11T01:55:39.699Z,10.63
2023-03-11T01:58:11.987Z,12.00
2023-03-11T02:00:40.006Z,13.83
2023-03-11T02:03:12.511Z,9.30
2023-03-11T02:05:41.121Z,13.60
2023-03-11T02:08:10.227Z,10.67
2023-03-11T02:10:40.138Z,9.73
2023-03-11T02:13:08.011Z,14.10
2023-03-11T02:15:37.362Z,9.63
2023-03-11T02:18:07.885Z,12.53
2023-03-11T02:20:45.230Z,11.63
2023-03-11T02:23:16.050Z,10.00
2023-03-11T02:25:52.015Z,5.43
2023-03-11T02:28:23.065Z,6.73
2023-03-11T02:30:51.812Z,4.60
2023-03-11T02:33:20.429Z,4.73
2023-03-11T02:35:48.222Z,3.20
2023-03-11T02:38:16.031Z,3.83
2023-03-11T02:40:55.616Z,3.50
2023-03-11T02:43:34.541Z,3.37
2023-03-11T02:46:04.068Z,6.30
2023-03-11T02:48:32.029Z,3.33
2023-03-11T02:51:00.530Z,3.50
2023-03-11T02:53:31.636Z,3.03
2023-03-11T02:55:59.399Z,4.73
2023-03-11T02:58:27.102Z,2.97
2023-03-11T03:00:56.284Z,5.73
2023-03-11T03:03:24.056Z,3.07
2023-03-11T03:05:52.065Z,7.00
2023-03-11T03:08:19.780Z,3.77
2023-03-11T03:10:47.494Z,4.67
2023-03-11T03:13:15.240Z,4.10
2023-03-11T03:15:43.003Z,2.73
2023-03-11T03:18:12.177Z,4.20
2023-03-11T03:20:39.876Z,3.37
2023-03-11T03:23:07.614Z,2.93
2023-03-11T03:25:35.373Z,2.90
2023-03-11T03:28:03.171Z,5.47
2023-03-11T03:30:30.860Z,3.93
2023-03-11T03:32:58.886Z,3.97
2023-03-11T03:35:28.005Z,5.27
2023-03-11T03:37:56.133Z,4.03
2023-03-11T03:40:23.827Z,5.17
2023-03-11T03:42:51.608Z,3.40
2023-03-11T03:45:19.825Z,3.10
2023-03-11T03:47:47.566Z,2.97
2023-03-11T03:50:15.263Z,3.37
2023-03-11T03:52:44.377Z,2.40
2023-03-11T03:55:12.292Z,2.60
2023-03-11T03:57:40.072Z,2.50
2023-03-11T04:00:10.043Z,4.07
2023-03-11T04:02:37.956Z,2.30
2023-03-11T04:05:06.562Z,4.13
2023-03-11T04:07:35.416Z,1.97
2023-03-11T04:10:05.278Z,4.27
2023-03-11T04:12:33.040Z,2.10
2023-03-11T04:15:00.727Z,2.90
2023-03-11T04:17:28.432Z,1.47
2023-03-11T04:19:56.127Z,2.30
2023-03-11T04:22:23.900Z,2.77
2023-03-11T04:24:51.642Z,2.93
2023-03-11T04:27:20.724Z,1.97
2023-03-11T04:29:48.722Z,2.47
2023-03-11T04:32:16.462Z,2.20
2023-03-11T04:34:44.828Z,2.50
2023-03-11T04:37:12.524Z,2.10
2023-03-11T04:39:40.303Z,2.23
2023-03-11T04:42:08.182Z,3.53
2023-03-11T04:44:37.584Z,2.80
2023-03-11T04:47:05.420Z,2.13
2023-03-11T04:49:33.130Z,2.43
2023-03-11T04:52:00.864Z,3.40
2023-03-11T04:54:28.932Z,2.47
2023-03-11T04:56:56.655Z,3.20
2023-03-11T04:59:24.378Z,1.63
2023-03-11T05:01:53.573Z,1.87
2023-03-11T05:04:21.474Z,1.87
2023-03-11T05:06:51.102Z,2.03
2023-03-11T05:09:19.150Z,2.13
2023-03-11T05:11:46.865Z,1.87
2023-03-11T05:14:14.646Z,1.67
2023-03-11T05:16:42.352Z,2.00
2023-03-11T05:19:25.355Z,2.07
2023-03-11T05:21:53.081Z,1.93
2023-03-11T05:24:21.229Z,2.00
2023-03-11T05:26:48.985Z,2.33
2023-03-11T05:29:16.704Z,2.10
2023-03-11T05:31:44.602Z,2.60
2023-03-11T05:34:13.706Z,2.10
2023-03-11T05:36:41.452Z,3.30
2023-03-11T05:39:09.334Z,1.97
2023-03-11T05:41:37.093Z,1.80
2023-03-11T05:44:05.536Z,1.73
2023-03-11T05:46:33.340Z,1.90
2023-03-11T05:49:01.540Z,2.50
2023-03-11T05:51:30.612Z,2.40
2023-03-11T05:53:58.756Z,3.60
2023-03-11T05:56:26.536Z,1.87
2023-03-11T05:58:54.290Z,2.23
2023-03-11T06:01:21.990Z,1.80
2023-03-11T06:03:49.828Z,1.90
2023-03-11T06:06:17.825Z,2.30
2023-03-11T06:08:49.854Z,1.87
2023-03-11T06:11:18.607Z,2.20
2023-03-11T06:13:46.460Z,2.30
2023-03-11T06:16:14.280Z,3.10
2023-03-11T06:18:42.006Z,2.03
2023-03-11T06:21:16.266Z,3.60
2023-03-11T06:23:43.996Z,2.03
2023-03-11T06:26:15.603Z,3.03
2023-03-11T06:28:43.348Z,5.40
2023-03-11T06:31:12.913Z,2.70
2023-03-11T06:33:40.642Z,2.20
2023-03-11T06:36:09.321Z,2.67
2023-03-11T06:38:37.529Z,2.47
2023-03-11T06:41:07.329Z,2.53
2023-03-11T06:43:37.179Z,2.30
2023-03-11T06:46:09.812Z,3.33
2023-03-11T06:48:37.561Z,2.53
2023-03-11T06:51:05.822Z,2.93
2023-03-11T06:53:33.903Z,5.80
2023-03-11T06:56:03.442Z,5.47
2023-03-11T06:58:32.047Z,2.63
2023-03-11T07:01:03.384Z,2.80
2023-03-11T07:03:31.500Z,2.37
2023-03-11T07:05:59.864Z,2.17
2023-03-11T07:08:27.964Z,2.57
2023-03-11T07:11:03.640Z,2.30
2023-03-11T07:13:31.387Z,1.67
2023-03-11T07:16:04.940Z,2.03
2023-03-11T07:18:33.316Z,3.60
2023-03-11T07:21:02.951Z,2.30
2023-03-11T07:23:30.835Z,2.50
2023-03-11T07:25:58.625Z,2.23
2023-03-11T07:28:27.867Z,2.73
2023-03-11T07:30:56.923Z,2.47
2023-03-11T07:33:26.103Z,2.63
2023-03-11T07:35:53.924Z,2.77
2023-03-11T07:38:21.712Z,2.30
2023-03-11T07:40:59.399Z,1.90
2023-03-11T07:43:27.173Z,1.77
2023-03-11T07:46:03.496Z,2.30
2023-03-11T07:48:32.821Z,2.93
2023-03-11T07:51:05.169Z,1.77
2023-03-11T07:53:32.886Z,3.83
2023-03-11T07:56:01.372Z,2.87
2023-03-11T07:58:29.368Z,3.20
2023-03-11T08:00:57.494Z,2.70
2023-03-11T08:03:25.891Z,3.23
2023-03-11T08:05:54.960Z,3.03
2023-03-11T08:08:22.653Z,3.13
2023-03-11T08:10:50.426Z,3.40
2023-03-11T08:13:18.127Z,3.73
2023-03-11T08:15:45.882Z,5.10
2023-03-11T08:18:13.961Z,4.10
2023-03-11T08:20:41.688Z,5.57
2023-03-11T08:23:11.042Z,4.60
2023-03-11T08:25:40.230Z,4.77
2023-03-11T08:28:09.050Z,5.10
2023-03-11T08:30:37.726Z,5.87
2023-03-11T08:33:06.108Z,5.13
2023-03-11T08:35:34.112Z,4.90
2023-03-11T08:38:02.156Z,5.90
2023-03-11T08:40:31.181Z,5.40
2023-03-11T08:42:58.959Z,8.03
2023-03-11T08:45:26.701Z,6.20
2023-03-11T08:47:54.470Z,7.23
2023-03-11T08:50:22.279Z,6.63
2023-03-11T08:52:50.179Z,6.77
2023-03-11T08:55:25.042Z,6.37
2023-03-11T08:57:54.134Z,7.50
2023-03-11T09:00:22.878Z,7.00
2023-03-11T09:02:50.672Z,5.53
2023-03-11T09:05:18.627Z,6.70
2023-03-11T09:07:46.824Z,6.67
2023-03-11T09:10:17.007Z,6.47
2023-03-11T09:12:44.852Z,8.87
2023-03-11T09:15:13.905Z,8.50
2023-03-11T09:17:41.638Z,7.43
2023-03-11T09:20:10.406Z,5.27
2023-03-11T09:22:38.131Z,5.13
2023-03-11T09:25:06.691Z,6.50
2023-03-11T09:27:34.539Z,4.50
2023-03-11T09:30:02.269Z,7.17
2023-03-11T09:32:31.470Z,4.93
2023-03-11T09:35:00.192Z,4.20
2023-03-11T09:37:30.180Z,4.57
2023-03-11T09:39:57.926Z,5.60
2023-03-11T09:42:34.064Z,6.20
2023-03-11T09:45:05.928Z,5.97
2023-03-11T09:47:40.839Z,5.00
2023-03-11T09:50:19.826Z,5.70
2023-03-11T09:52:57.434Z,4.40
2023-03-11T09:55:34.547Z,5.10
2023-03-11T09:58:09.250Z,5.47
2023-03-11T10:00:37.184Z,4.03
2023-03-11T10:03:12.657Z,3.50
2023-03-11T10:05:42.405Z,4.93
2023-03-11T10:08:22.955Z,3.97
2023-03-11T10:11:02.456Z,3.40
2023-03-11T10:13:38.808Z,3.97
2023-03-11T10:16:15.914Z,3.93
2023-03-11T10:18:54.456Z,3.53
2023-03-11T10:21:36.913Z,4.43
2023-03-11T10:24:33.475Z,2.53
2023-03-11T10:27:09.328Z,3.90
2023-03-11T10:29:46.070Z,4.37
2023-03-11T10:32:18.404Z,3.97
2023-03-11T10:34:53.496Z,2.93
2023-03-11T10:37:30.894Z,4.13
2023-03-11T10:40:14.544Z,3.83
2023-03-11T10:42:45.374Z,3.10
2023-03-11T10:45:15.043Z,3.63
2023-03-11T10:47:43.108Z,2.90
2023-03-11T10:50:17.699Z,3.67
2023-03-11T10:53:06.425Z,3.60
2023-03-11T10:55:34.366Z,2.77
2023-03-11T10:58:07.361Z,4.47
2023-03-11T11:00:35.266Z,2.43
2023-03-11T11:03:04.391Z,2.80
2023-03-11T11:05:35.387Z,3.10
2023-03-11T11:08:09.036Z,3.20
2023-03-11T11:10:38.348Z,2.90
2023-03-11T11:13:19.679Z,2.40
2023-03-11T11:16:06.043Z,3.63
2023-03-11T11:18:35.713Z,2.90
2023-03-11T11:21:07.975Z,2.93
2023-03-11T11:23:40.438Z,3.63
2023-03-11T11:26:15.947Z,2.87
2023-03-11T11:28:44.347Z,3.17
2023-03-11T11:31:23.113Z,2.60
2023-03-11T11:33:52.976Z,2.77
2023-03-11T11:36:25.161Z,3.10
2023-03-11T11:38:54.479Z,2.50
2023-03-11T11:41:24.724Z,2.73
2023-03-11T11:43:54.745Z,4.20
2023-03-11T11:46:28.005Z,2.07
2023-03-11T11:49:05.277Z,2.03
2023-03-11T11:51:40.260Z,1.93
2023-03-11T11:54:17.498Z,2.63
2023-03-11T11:56:46.285Z,3.03
2023-03-11T11:59:19.770Z,2.53
2023-03-11T12:01:58.186Z,2.57
2023-03-11T12:04:37.800Z,2.40
2023-03-11T12:07:23.789Z,2.17
2023-03-11T12:10:07.264Z,2.90
2023-03-11T12:12:51.172Z,1.37
2023-03-11T12:15:25.226Z,1.80
2023-03-11T12:18:00.292Z,1.33
2023-03-11T12:20:34.008Z,1.50
2023-03-11T12:23:16.615Z,0.90
2023-03-11T12:25:56.159Z,1.10
2023-03-11T12:28:29.898Z,1.43
2023-03-11T12:31:02.105Z,1.20
2023-03-11T12:33:34.833Z,1.27
2023-03-11T12:36:03.330Z,1.67
2023-03-11T12:38:35.615Z,1.30
2023-03-11T12:41:08.807Z,1.53
2023-03-11T12:44:22.239Z,1.03
2023-03-11T12:47:21.170Z,1.07
2023-03-11T12:49:50.380Z,1.10
2023-03-11T12:52:29.829Z,1.00
2023-03-11T12:55:35.876Z,1.83
2023-03-11T12:58:36.199Z,0.90
2023-03-11T13:01:27.020Z,1.20
2023-03-11T13:04:04.341Z,1.23
2023-03-11T13:07:04.858Z,1.80
2023-03-11T13:09:32.744Z,1.40
2023-03-11T13:12:00.487Z,1.27
2023-03-11T13:14:31.576Z,0.90
2023-03-11T13:17:27.531Z,1.27
2023-03-11T13:19:56.636Z,1.30
2023-03-11T13:22:43.914Z,4.93
2023-03-11T13:25:40.307Z,1.03
2023-03-11T13:28:35.940Z,0.77
2023-03-11T13:31:20.904Z,0.80
2023-03-11T13:33:55.702Z,0.97
2023-03-11T13:36:40.475Z,1.70
2023-03-11T13:39:40.942Z,1.00
2023-03-11T13:42:19.010Z,1.30
2023-03-11T13:44:48.386Z,1.20
2023-03-11T13:47:17.682Z,0.40
2023-03-11T13:49:53.644Z,1.03
2023-03-11T13:52:26.777Z,0.87
2023-03-11T13:55:02.021Z,0.50
2023-03-11T13:57:34.914Z,0.60
2023-03-11T14:00:17.653Z,0.67
2023-03-11T14:02:48.607Z,0.73
2023-03-11T14:05:21.957Z,0.80
2023-03-11T14:07:49.676Z,0.60
2023-03-11T14:10:28.717Z,0.50
2023-03-11T14:13:18.099Z,0.57
2023-03-11T14:15:53.628Z,0.50
2023-03-11T14:18:33.562Z,0.90
2023-03-11T14:21:04.668Z,1.13
2023-03-11T14:23:36.328Z,1.10
2023-03-11T14:26:08.382Z,2.77
2023-03-11T14:28:41.213Z,1.70
2023-03-11T14:31:21.994Z,1.33
2023-03-11T14:33:56.145Z,1.30
2023-03-11T14:36:25.297Z,1.30
2023-03-11T14:38:53.020Z,1.60
2023-03-11T14:41:20.815Z,1.60
2023-03-11T14:43:53.481Z,0.80
2023-03-11T14:46:25.126Z,1.00
2023-03-11T14:48:54.158Z,2.10
2023-03-11T14:51:29.607Z,1.33
2023-03-11T14:54:07.568Z,2.60
2023-03-11T14:56:41.255Z,3.63
2023-03-11T14:59:13.993Z,6.23
2023-03-11T15:01:43.487Z,1.40
2023-03-11T15:04:14.373Z,1.53
2023-03-11T15:06:44.779Z,1.40
2023-03-11T15:09:14.859Z,2.23
2023-03-11T15:11:47.346Z,1.77
2023-03-11T15:14:21.000Z,1.00
2023-03-11T15:16:48.821Z,1.87
2023-03-11T15:19:24.639Z,0.90
2023-03-11T15:21:55.242Z,2.73
2023-03-11T15:24:27.524Z,1.83
2023-03-11T15:26:58.253Z,1.70
2023-03-11T15:29:27.628Z,1.40
2023-03-11T15:31:57.188Z,1.43
2023-03-11T15:34:30.849Z,1.40
2023-03-11T15:37:06.429Z,0.70
2023-03-11T15:39:46.429Z,2.33
2023-03-11T15:42:19.150Z,0.97
2023-03-11T15:45:06.097Z,2.77
2023-03-11T15:47:35.938Z,1.40
2023-03-11T15:50:23.608Z,1.27
2023-03-11T15:52:55.364Z,3.30
2023-03-11T15:55:24.185Z,1.40
2023-03-11T15:57:54.597Z,1.90
2023-03-11T16:00:24.108Z,1.27
2023-03-11T16:02:52.092Z,3.17
2023-03-11T16:05:24.079Z,4.00
2023-03-11T16:07:53.173Z,1.70
2023-03-11T16:10:24.205Z,1.27
2023-03-11T16:12:52.115Z,1.53
2023-03-11T16:15:24.816Z,1.50
2023-03-11T16:17:53.537Z,2.00
2023-03-11T16:20:22.692Z,1.73
2023-03-11T16:22:53.869Z,4.17
2023-03-11T16:25:24.657Z,1.57
2023-03-11T16:27:53.920Z,1.20
2023-03-11T16:30:22.903Z,1.57
2023-03-11T16:32:50.783Z,0.67
2023-03-11T16:35:19.166Z,0.60
2023-03-11T16:37:47.137Z,0.90
2023-03-11T16:40:18.616Z,0.40
2023-03-11T16:42:46.658Z,0.33
2023-03-11T16:45:15.716Z,0.73
2023-03-11T16:47:43.506Z,0.63
2023-03-11T16:50:12.503Z,0.87
2023-03-11T16:52:40.506Z,0.67
2023-03-11T16:55:09.184Z,1.17
2023-03-11T16:57:39.461Z,0.80
2023-03-11T17:00:09.789Z,1.03
2023-03-11T17:02:37.944Z,1.00
2023-03-11T17:05:07.014Z,3.53
2023-03-11T17:07:36.964Z,0.80
2023-03-11T17:10:07.431Z,2.13
2023-03-11T17:12:36.019Z,2.10
2023-03-11T17:15:06.552Z,0.83
2023-03-11T17:17:34.267Z,0.70
2023-03-11T17:20:02.008Z,1.90
2023-03-11T17:22:29.760Z,5.10
2023-03-11T17:24:57.492Z,2.93
2023-03-11T17:27:26.113Z,2.63
2023-03-11T17:29:55.952Z,1.63
2023-03-11T17:32:25.860Z,1.03
2023-03-11T17:34:53.598Z,2.53
2023-03-11T17:37:21.826Z,2.63
2023-03-11T17:39:49.744Z,1.00
2023-03-11T17:42:17.662Z,1.30
2023-03-11T17:44:51.687Z,0.93
2023-03-11T17:47:20.501Z,2.60
2023-03-11T17:49:50.067Z,2.20
2023-03-11T17:52:17.778Z,0.90
2023-03-11T17:54:46.034Z,1.17
2023-03-11T17:57:13.816Z,1.03
2023-03-11T17:59:41.531Z,3.70
2023-03-11T18:02:11.009Z,5.80
2023-03-11T18:04:39.151Z,1.20
2023-03-11T18:07:08.524Z,2.93
2023-03-11T18:09:36.236Z,1.33
2023-03-11T18:12:04.132Z,1.10
2023-03-11T18:14:31.844Z,3.47
2023-03-11T18:16:59.638Z,0.97
2023-03-11T18:19:27.299Z,0.77
2023-03-11T18:21:55.032Z,0.90
2023-03-11T18:24:24.116Z,0.80
2023-03-11T18:26:51.893Z,1.97
2023-03-11T18:29:19.659Z,4.50
2023-03-11T18:31:47.506Z,2.83
2023-03-11T18:34:15.365Z,1.53
2023-03-11T18:36:43.484Z,1.70
2023-03-11T18:39:13.744Z,2.07
2023-03-11T18:41:43.587Z,0.93
2023-03-11T18:44:11.400Z,2.10
2023-03-11T18:46:39.173Z,1.13
2023-03-11T18:49:06.933Z,1.50
2023-03-11T18:51:34.893Z,2.10
2023-03-11T18:54:03.758Z,1.27
2023-03-11T18:56:32.044Z,2.27
2023-03-11T18:59:01.889Z,2.87
2023-03-11T19:01:29.728Z,2.83
2023-03-11T19:03:59.490Z,1.40
2023-03-11T19:06:29.447Z,4.10
2023-03-11T19:08:57.833Z,1.93
2023-03-11T19:11:26.354Z,4.03
2023-03-11T19:13:54.388Z,3.90
2023-03-11T19:16:25.024Z,3.63
2023-03-11T19:18:53.842Z,1.43
2023-03-11T19:21:22.045Z,1.03
2023-03-11T19:23:52.014Z,2.97
2023-03-11T19:26:21.059Z,1.17
2023-03-11T19:28:51.558Z,1.60
2023-03-11T19:31:19.350Z,1.53
2023-03-11T19:33:50.155Z,4.80
2023-03-11T19:36:18.730Z,2.43
2023-03-11T19:38:47.345Z,1.40
2023-03-11T19:41:18.557Z,0.60
2023-03-11T19:43:47.046Z,1.00
2023-03-11T19:46:19.854Z,1.60
2023-03-11T19:48:49.099Z,4.93
2023-03-11T19:51:17.176Z,3.10
2023-03-11T19:53:46.012Z,3.30
2023-03-11T19:56:13.862Z,2.23
2023-03-11T19:58:42.534Z,0.87
2023-03-11T20:01:16.578Z,2.37
2023-03-11T20:03:44.359Z,0.80
2023-03-11T20:06:16.467Z,0.60
2023-03-11T20:08:44.611Z,1.17
2023-03-11T20:11:12.489Z,1.13
2023-03-11T20:13:42.636Z,1.00
2023-03-11T20:16:13.364Z,4.43
2023-03-11T20:18:41.698Z,2.10
2023-03-11T20:21:11.915Z,1.00
2023-03-11T20:23:41.545Z,5.70
2023-03-11T20:26:11.368Z,1.53
2023-03-11T20:28:39.641Z,2.17
2023-03-11T20:31:12.806Z,0.93
2023-03-11T20:33:40.812Z,1.10
2023-03-11T20:36:10.615Z,1.63
2023-03-11T20:38:38.594Z,1.43
2023-03-11T20:41:09.692Z,3.50
2023-03-11T20:43:38.038Z,2.27
2023-03-11T20:46:07.448Z,0.83
2023-03-11T20:48:35.322Z,2.30
2023-03-11T20:51:03.976Z,1.13
2023-03-11T20:53:32.565Z,4.57
2023-03-11T20:56:01.522Z,2.40
2023-03-11T20:58:30.693Z,1.70
2023-03-11T21:00:58.908Z,2.97
2023-03-11T21:03:26.889Z,3.53
2023-03-11T21:05:54.780Z,4.53
2023-03-11T21:08:22.591Z,2.20
2023-03-11T21:10:50.351Z,4.93
2023-03-11T21:13:18.084Z,1.30
2023-03-11T21:15:47.281Z,1.00
2023-03-11T21:18:15.039Z,2.63
2023-03-11T21:20:42.882Z,3.57
2023-03-11T21:23:10.666Z,0.63
2023-03-11T21:25:42.635Z,2.00
2023-03-11T21:28:10.496Z,1.40
2023-03-11T21:30:38.356Z,0.80
2023-03-11T21:33:07.699Z,1.37
2023-03-11T21:35:35.628Z,1.80
2023-03-11T21:38:03.539Z,1.17
2023-03-11T21:40:31.388Z,6.13
2023-03-11T21:42:59.243Z,2.43
2023-03-11T21:45:27.029Z,1.70
2023-03-11T21:47:54.790Z,1.23
2023-03-11T21:50:23.951Z,1.40
2023-03-11T21:52:51.676Z,1.23
2023-03-11T21:55:19.777Z,3.83
2023-03-11T21:57:47.630Z,2.07
2023-03-11T22:00:16.099Z,2.07
2023-03-11T22:02:44.087Z,0.83
2023-03-11T22:05:12.431Z,1.67
2023-03-11T22:07:41.639Z,1.37
2023-03-11T22:10:10.464Z,1.80
2023-03-11T22:12:38.286Z,1.13
2023-03-11T22:15:07.310Z,0.80
2023-03-11T22:17:35.209Z,1.20
2023-03-11T22:20:03.397Z,1.53
2023-03-11T22:22:31.549Z,1.70
2023-03-11T22:25:00.728Z,2.13
2023-03-11T22:27:28.444Z,3.10
2023-03-11T22:29:56.159Z,5.83
2023-03-11T22:32:24.332Z,2.37
2023-03-11T22:34:52.226Z,3.40
2023-03-11T22:37:20.069Z,0.80
2023-03-11T22:39:47.778Z,1.03
2023-03-11T22:42:16.871Z,2.47
2023-03-11T22:44:44.571Z,1.53
2023-03-11T22:47:12.378Z,1.03
2023-03-11T22:49:40.105Z,1.27
2023-03-11T22:52:07.872Z,2.40
2023-03-11T22:54:37.389Z,2.53
2023-03-11T22:57:05.321Z,3.80
2023-03-11T22:59:34.407Z,1.07
2023-03-11T23:02:02.198Z,0.73
2023-03-11T23:04:30.144Z,0.70
2023-03-11T23:06:57.963Z,1.93
2023-03-11T23:09:25.977Z,2.00
2023-03-11T23:11:54.413Z,1.17
2023-03-11T23:14:30.708Z,2.30
2023-03-11T23:17:07.202Z,2.57
2023-03-11T23:19:34.982Z,5.23
2023-03-11T23:22:02.684Z,5.13
2023-03-11T23:24:31.330Z,1.43
2023-03-11T23:26:59.137Z,1.80
2023-03-11T23:29:26.925Z,1.23
2023-03-11T23:31:54.625Z,2.47
2023-03-11T23:34:23.774Z,2.57
2023-03-11T23:36:54.507Z,1.63
2023-03-11T23:39:22.229Z,3.07
2023-03-11T23:41:49.944Z,0.90
2023-03-11T23:44:17.655Z,3.63
2023-03-11T23:46:45.364Z,3.83
2023-03-11T23:49:13.074Z,0.97
2023-03-11T23:51:42.139Z,3.87
2023-03-11T23:54:09.857Z,0.80
2023-03-11T23:56:37.554Z,1.83
2023-03-11T23:59:05.537Z,3.60
